Aérodrome :
LOGIN :

S'inscrire | Disclaimer

   EN    FR    IT 

 










Légende :    VFR   VFR Marginal   IFR   IFR Intensif   IFR Très Intensif
Visi : 
Plafond : 
>= 8 km
>= 3000ft
5 à 8 km
1000 à 3000 ft
1500m à 5 km
500 à 1000 ft
800 à 1500m
200 à 500 ft
< 800m
< 200 ft
Symboles :   Orages  Brouillard  Fortes neiges  Fortes précipitations  Vent > 20 kt
SIGMETs :   Divers  Orages  Givrage  Turbulence  Onde Orograph.  Cendres Volcan.







- Altitude de l'aérodrome : 425 ft
- Code IATA : DTM


EDLW - Dortmund

DERNIER METAR :
  • 251150Z 27011KT 230V290 9999 SCT036 07/01 Q1007

METARs EXPIRÉS :
  • 251120Z 26015G26KT 9999 -SHRA BKN040 06/M02 Q1007
  • 251050Z 25015KT 9999 BKN043 08/M03 Q1007
  • 251020Z 26015KT 9999 BKN048 07/M03 Q1007
  • 250950Z 25014KT 9999 BKN040 07/M02 Q1007
  • 250920Z 25016KT 9999 SCT040 07/M02 Q1006

TAF TAF EDLW
Valide du 25 à 12h jusqu'au 26 à 12h UTC


251100Z 2512/2612 27015KT 9999 BKN040
TEMPO 2512/2516 26015G25KT
PROB30
TEMPO 2512/2517 25020G30KT 4500 SHRAGS BKN012CB
BECMG 2517/2520 30006KT
BECMG 2520/2522 23004KT
BECMG 2607/2610 30005KT
Pas de NOTAMs connus pour ce terrain.



MET'MAP, la Météo Aéronautique d'un coup d'oeil ! - Copyright ORBIFLY Décembre 2007 - Disclaimer

ORBIFLY MET'MAP TEAM :

Programmation & Développement : Alexandra Zaïnal
Conception & Développement : Baudouin d'Aumeries
Co-Programmation & Développement : Marc-Olivier Méhu
Soutien technique & logistique : Manuel Goepfert

Contact : metmap@orbifly.com




SOURCES & CREDITS :

   NOAA